Time;durP1;ratioP1;P1;durP2;ratioP2;P2;SDS_P1;SDS_P2;PMS_P1;PMS_P2;Temp;Humidity;BMP_temperature;BMP_pressure;BME280_temperature;BME280_humidity;BME280_pressure;Samples;Min_cycle;Max_cycle;Signal;HPM_P1;HPM_P2
2022/03/24 00:02:14;;;;;;;11.20;7.10;;;;;;;;;;5057720;28;20173;-77
2022/03/24 00:04:40;;;;;;;9.27;6.70;;;;;;;;;;5057601;28;20173;-77
2022/03/24 00:07:06;;;;;;;9.97;6.97;;;;;;;;;;5057296;28;20188;-77
2022/03/24 00:09:33;;;;;;;10.07;7.33;;;;;;;;;;5057515;28;20208;-77
2022/03/24 00:11:59;;;;;;;9.27;7.00;;;;;;;;;;5057400;28;20192;-77
2022/03/24 00:14:25;;;;;;;10.37;6.70;;;;;;;;;;5057293;28;20181;-77
2022/03/24 00:16:51;;;;;;;9.93;6.87;;;;;;;;;;5057192;28;20262;-77
2022/03/24 00:19:19;;;;;;;11.93;7.20;;;;;;;;;;5057662;28;20204;-77
2022/03/24 00:21:45;;;;;;;9.57;6.53;;;;;;;;;;5075034;28;20176;-77
2022/03/24 00:24:11;;;;;;;9.40;6.90;;;;;;;;;;5057693;28;20176;-77
2022/03/24 00:26:38;;;;;;;9.33;6.80;;;;;;;;;;5074501;28;20180;-76
2022/03/24 00:29:05;;;;;;;8.87;6.63;;;;;;;;;;5075303;28;20685;-76
2022/03/24 00:31:31;;;;;;;8.07;6.13;;;;;;;;;;5075292;28;20581;-77
2022/03/24 00:33:58;;;;;;;8.83;5.90;;;;;;;;;;5057090;28;20202;-77
2022/03/24 00:36:24;;;;;;;8.57;6.40;;;;;;;;;;5057000;28;20184;-76
2022/03/24 00:38:52;;;;;;;8.63;6.30;;;;;;;;;;5057338;28;20245;-76
2022/03/24 00:41:22;;;;;;;8.97;6.47;;;;;;;;;;5073403;28;20184;-76
2022/03/24 00:43:48;;;;;;;11.47;6.67;;;;;;;;;;5057168;28;20248;-77
2022/03/24 00:46:22;;;;;;;8.63;6.63;;;;;;;;;;5056705;28;20181;-76
2022/03/24 00:48:49;;;;;;;8.57;6.37;;;;;;;;;;5056862;28;20198;-76
2022/03/24 00:51:15;;;;;;;9.57;6.63;;;;;;;;;;5074420;28;20183;-76
2022/03/24 00:53:42;;;;;;;8.97;6.83;;;;;;;;;;5056755;28;20544;-76
2022/03/24 00:56:08;;;;;;;10.10;6.60;;;;;;;;;;5056874;28;20188;-77
2022/03/24 00:58:34;;;;;;;10.27;6.83;;;;;;;;;;5056292;28;20289;-77
2022/03/24 01:01:02;;;;;;;11.10;6.77;;;;;;;;;;5074045;28;20175;-76
2022/03/24 01:03:28;;;;;;;10.60;7.40;;;;;;;;;;5056322;28;20638;-77
2022/03/24 01:05:54;;;;;;;10.07;6.97;;;;;;;;;;5074367;28;20171;-76
2022/03/24 01:08:22;;;;;;;9.03;6.70;;;;;;;;;;5056502;28;20669;-76
2022/03/24 01:10:48;;;;;;;9.60;6.90;;;;;;;;;;5056486;28;20177;-76
2022/03/24 01:13:15;;;;;;;8.97;6.97;;;;;;;;;;5056338;28;20194;-76
2022/03/24 01:15:45;;;;;;;9.53;7.20;;;;;;;;;;5056249;28;20184;-77
2022/03/24 01:18:14;;;;;;;8.97;6.87;;;;;;;;;;5056053;28;20703;-77
2022/03/24 01:20:41;;;;;;;9.57;7.17;;;;;;;;;;5055914;28;20192;-77
2022/03/24 01:23:07;;;;;;;11.07;7.23;;;;;;;;;;5055850;28;20204;-76
2022/03/24 01:25:33;;;;;;;11.90;7.30;;;;;;;;;;5056219;28;20175;-76
2022/03/24 01:27:59;;;;;;;9.80;7.47;;;;;;;;;;5055489;28;20724;-76
2022/03/24 01:30:25;;;;;;;10.27;7.93;;;;;;;;;;5055925;28;20273;-76
2022/03/24 01:32:51;;;;;;;10.67;7.67;;;;;;;;;;5055731;28;20635;-76
2022/03/24 01:35:18;;;;;;;9.40;6.90;;;;;;;;;;5055966;28;20182;-76
2022/03/24 01:37:44;;;;;;;9.07;6.70;;;;;;;;;;5055318;28;20211;-76
2022/03/24 01:40:12;;;;;;;10.10;7.00;;;;;;;;;;5055832;28;20183;-76
2022/03/24 01:42:38;;;;;;;10.10;7.77;;;;;;;;;;5055182;28;20195;-76
2022/03/24 01:45:06;;;;;;;9.70;7.20;;;;;;;;;;5055424;28;20183;-76
2022/03/24 01:47:34;;;;;;;14.37;8.10;;;;;;;;;;5055536;28;20191;-77
2022/03/24 01:50:00;;;;;;;12.30;8.20;;;;;;;;;;5055638;28;20302;-76
2022/03/24 01:52:28;;;;;;;10.00;6.70;;;;;;;;;;5055480;28;20216;-76
2022/03/24 01:54:55;;;;;;;9.50;7.40;;;;;;;;;;5055482;28;20185;-77
2022/03/24 01:57:22;;;;;;;10.40;7.43;;;;;;;;;;5055580;28;20207;-77
2022/03/24 01:59:51;;;;;;;9.97;6.90;;;;;;;;;;5055608;28;20196;-76
2022/03/24 02:02:18;;;;;;;10.60;7.37;;;;;;;;;;5072591;28;20174;-76
2022/03/24 02:04:45;;;;;;;11.47;7.63;;;;;;;;;;5054890;28;20675;-77
2022/03/24 02:07:11;;;;;;;10.80;7.53;;;;;;;;;;5055056;28;20238;-76
2022/03/24 02:09:38;;;;;;;10.63;7.87;;;;;;;;;;5054705;28;20196;-76
2022/03/24 02:12:08;;;;;;;10.67;7.10;;;;;;;;;;5055073;28;20258;-76
2022/03/24 02:14:34;;;;;;;9.90;7.37;;;;;;;;;;5055308;28;20176;-76
2022/03/24 02:17:00;;;;;;;10.27;7.37;;;;;;;;;;5054913;28;20212;-76
2022/03/24 02:19:28;;;;;;;9.83;7.37;;;;;;;;;;5055087;28;20199;-77
2022/03/24 02:21:55;;;;;;;9.83;7.33;;;;;;;;;;5054727;28;20247;-76
2022/03/24 02:24:22;;;;;;;12.17;7.80;;;;;;;;;;5054764;28;20175;-76
2022/03/24 02:26:48;;;;;;;11.23;8.13;;;;;;;;;;5073011;28;20179;-77
2022/03/24 02:29:16;;;;;;;10.00;7.37;;;;;;;;;;5055340;28;20211;-77
2022/03/24 02:31:44;;;;;;;11.07;7.30;;;;;;;;;;5072309;28;20182;-76
2022/03/24 02:36:57;;;;;;;12.83;7.70;;;;;;;;;;5071486;28;20230;-76
2022/03/24 02:39:23;;;;;;;12.23;8.10;;;;;;;;;;5054434;28;20205;-76
2022/03/24 02:41:51;;;;;;;9.50;7.30;;;;;;;;;;5054555;28;20184;-76
2022/03/24 02:44:18;;;;;;;10.13;7.43;;;;;;;;;;5054288;28;20172;-76
2022/03/24 02:46:47;;;;;;;10.53;7.50;;;;;;;;;;5054394;28;20180;-76
2022/03/24 02:49:13;;;;;;;11.83;7.87;;;;;;;;;;5054534;28;20217;-76
2022/03/24 02:51:39;;;;;;;14.17;8.50;;;;;;;;;;5054086;28;20552;-76
2022/03/24 02:54:05;;;;;;;10.93;7.83;;;;;;;;;;5054645;28;20192;-76
2022/03/24 02:56:31;;;;;;;13.67;8.60;;;;;;;;;;5054683;28;20616;-76
2022/03/24 02:58:58;;;;;;;10.73;7.23;;;;;;;;;;5054140;28;20203;-76
2022/03/24 03:01:27;;;;;;;11.00;8.37;;;;;;;;;;5054395;28;20229;-76
2022/03/24 03:03:53;;;;;;;10.47;7.97;;;;;;;;;;5054356;28;20198;-76
2022/03/24 03:06:20;;;;;;;12.07;8.43;;;;;;;;;;5054078;28;20176;-76
2022/03/24 03:08:49;;;;;;;10.70;8.07;;;;;;;;;;5054162;28;20206;-76
2022/03/24 03:11:20;;;;;;;12.77;8.47;;;;;;;;;;5054068;28;20203;-76
2022/03/24 03:13:46;;;;;;;11.80;8.13;;;;;;;;;;5054218;28;20263;-76
2022/03/24 03:16:13;;;;;;;11.60;8.37;;;;;;;;;;5056695;28;20622;-76
2022/03/24 03:18:41;;;;;;;11.67;8.37;;;;;;;;;;5057863;28;20260;-76
2022/03/24 03:21:08;;;;;;;12.47;8.07;;;;;;;;;;5058152;28;20183;-76
2022/03/24 03:23:37;;;;;;;12.70;8.67;;;;;;;;;;5058013;28;20264;-76
2022/03/24 03:26:04;;;;;;;12.40;8.97;;;;;;;;;;5057846;28;20174;-76
2022/03/24 03:28:30;;;;;;;11.97;8.30;;;;;;;;;;5057743;28;20234;-76
2022/03/24 03:30:57;;;;;;;11.93;8.27;;;;;;;;;;5057633;28;20186;-76
2022/03/24 03:33:23;;;;;;;11.33;8.23;;;;;;;;;;5075394;28;20170;-76
2022/03/24 03:35:49;;;;;;;10.70;8.00;;;;;;;;;;5057986;28;20190;-76
2022/03/24 03:38:15;;;;;;;14.00;8.27;;;;;;;;;;5057718;28;20225;-76
2022/03/24 03:40:41;;;;;;;10.40;7.70;;;;;;;;;;5057487;28;20177;-76
2022/03/24 03:43:10;;;;;;;10.90;8.43;;;;;;;;;;5057586;28;20175;-76
2022/03/24 03:45:36;;;;;;;16.67;8.77;;;;;;;;;;5057425;28;20177;-76
2022/03/24 03:48:03;;;;;;;11.17;7.90;;;;;;;;;;5074069;28;20197;-76
2022/03/24 03:50:29;;;;;;;11.33;8.00;;;;;;;;;;5057431;28;20182;-76
2022/03/24 03:52:55;;;;;;;11.43;8.27;;;;;;;;;;5057451;28;20177;-76
2022/03/24 03:55:22;;;;;;;13.23;8.13;;;;;;;;;;5057538;28;20715;-76
2022/03/24 03:57:48;;;;;;;13.50;9.00;;;;;;;;;;5057419;28;20209;-76
2022/03/24 04:03:03;;;;;;;13.83;9.00;;;;;;;;;;5074169;28;20219;-76
2022/03/24 04:05:30;;;;;;;11.90;8.90;;;;;;;;;;5057450;28;20175;-76
2022/03/24 04:07:56;;;;;;;13.50;8.83;;;;;;;;;;5056896;28;20250;-76
2022/03/24 04:10:22;;;;;;;13.20;9.37;;;;;;;;;;5057279;28;20181;-76
2022/03/24 04:12:51;;;;;;;16.93;8.90;;;;;;;;;;5057025;28;20176;-76
2022/03/24 04:15:17;;;;;;;11.70;8.43;;;;;;;;;;5074794;28;20173;-76
2022/03/24 04:17:43;;;;;;;14.23;9.20;;;;;;;;;;5056654;28;20211;-76
2022/03/24 04:20:10;;;;;;;13.40;9.13;;;;;;;;;;5057028;28;20224;-76
2022/03/24 04:22:36;;;;;;;13.27;9.00;;;;;;;;;;5056880;28;20173;-76
2022/03/24 04:25:05;;;;;;;12.20;8.97;;;;;;;;;;5074603;28;20161;-76
2022/03/24 04:27:31;;;;;;;13.13;8.43;;;;;;;;;;5056337;28;20173;-76
2022/03/24 04:29:57;;;;;;;12.30;8.20;;;;;;;;;;5056496;28;20224;-76
2022/03/24 04:32:23;;;;;;;12.07;8.27;;;;;;;;;;5074257;28;20226;-76
2022/03/24 04:34:49;;;;;;;11.73;8.23;;;;;;;;;;5056414;28;20192;-76
2022/03/24 04:37:15;;;;;;;12.87;8.70;;;;;;;;;;5074368;28;20251;-76
2022/03/24 04:39:41;;;;;;;13.23;8.60;;;;;;;;;;5056334;28;20553;-76
2022/03/24 04:42:08;;;;;;;12.47;8.50;;;;;;;;;;5056126;28;20175;-76
2022/03/24 04:44:34;;;;;;;11.90;8.63;;;;;;;;;;5056709;28;20632;-76
2022/03/24 04:47:00;;;;;;;13.00;8.67;;;;;;;;;;5056371;28;20178;-76
2022/03/24 04:49:26;;;;;;;13.03;8.50;;;;;;;;;;5074023;28;20280;-76
2022/03/24 04:51:53;;;;;;;13.70;8.67;;;;;;;;;;5073856;28;20173;-76
2022/03/24 04:54:20;;;;;;;12.30;8.83;;;;;;;;;;5056463;28;20185;-76
2022/03/24 04:56:46;;;;;;;13.83;9.53;;;;;;;;;;5055955;28;20205;-76
2022/03/24 04:59:12;;;;;;;14.10;9.27;;;;;;;;;;5055997;28;20283;-76
2022/03/24 05:01:40;;;;;;;13.90;9.13;;;;;;;;;;5055803;28;20181;-76
2022/03/24 05:04:07;;;;;;;16.20;10.67;;;;;;;;;;5073913;28;20173;-76
2022/03/24 05:06:33;;;;;;;13.63;9.60;;;;;;;;;;5055828;28;20256;-76
2022/03/24 05:08:59;;;;;;;12.90;9.57;;;;;;;;;;5055974;28;20194;-76
2022/03/24 05:11:25;;;;;;;11.67;8.83;;;;;;;;;;5072626;28;20181;-76
2022/03/24 05:13:52;;;;;;;12.53;9.13;;;;;;;;;;5055739;28;20173;-76
2022/03/24 05:16:18;;;;;;;15.33;9.77;;;;;;;;;;5055669;28;20177;-76
2022/03/24 05:18:45;;;;;;;16.50;9.93;;;;;;;;;;5055798;28;20208;-76
2022/03/24 05:21:12;;;;;;;15.13;9.90;;;;;;;;;;5055642;28;20212;-76
2022/03/24 05:23:38;;;;;;;14.00;9.23;;;;;;;;;;5073357;28;20177;-76
2022/03/24 05:26:04;;;;;;;13.60;9.03;;;;;;;;;;5055512;28;20215;-76
2022/03/24 05:28:30;;;;;;;13.70;8.90;;;;;;;;;;5055522;28;20224;-76
2022/03/24 05:30:56;;;;;;;14.73;9.50;;;;;;;;;;5055630;28;20185;-76
2022/03/24 05:33:23;;;;;;;13.60;9.90;;;;;;;;;;5055402;28;20188;-75
2022/03/24 05:35:49;;;;;;;15.33;9.53;;;;;;;;;;5073233;28;20181;-75
2022/03/24 05:38:15;;;;;;;14.03;9.97;;;;;;;;;;5071499;28;20216;-75
2022/03/24 05:40:41;;;;;;;17.37;10.27;;;;;;;;;;5055510;28;20184;-76
2022/03/24 05:43:07;;;;;;;14.37;9.80;;;;;;;;;;5055297;28;20181;-76
2022/03/24 05:45:34;;;;;;;13.63;9.53;;;;;;;;;;5055831;28;20214;-77
2022/03/24 05:48:00;;;;;;;13.37;9.40;;;;;;;;;;5055034;28;20215;-76
2022/03/24 05:50:40;;;;;;;12.60;9.40;;;;;;;;;;5055195;28;20566;-76
2022/03/24 05:53:06;;;;;;;13.23;9.23;;;;;;;;;;5071686;28;20164;-76
2022/03/24 05:55:35;;;;;;;13.70;9.77;;;;;;;;;;5054971;28;20181;-76
2022/03/24 05:58:01;;;;;;;13.97;9.53;;;;;;;;;;5071910;28;20209;-75
2022/03/24 06:00:27;;;;;;;13.53;9.10;;;;;;;;;;5054863;28;20264;-75
2022/03/24 06:02:56;;;;;;;13.50;9.17;;;;;;;;;;5072570;28;20165;-76
2022/03/24 06:05:23;;;;;;;13.63;9.23;;;;;;;;;;5055203;28;20177;-76
2022/03/24 06:07:49;;;;;;;13.53;8.77;;;;;;;;;;5071411;28;20592;-76
2022/03/24 06:10:16;;;;;;;13.60;9.30;;;;;;;;;;5054986;28;20212;-76
2022/03/24 06:12:42;;;;;;;12.90;9.10;;;;;;;;;;5054825;28;20185;-76
2022/03/24 06:15:08;;;;;;;13.20;9.00;;;;;;;;;;5055244;28;20625;-75
2022/03/24 06:17:35;;;;;;;13.87;9.87;;;;;;;;;;5054367;28;20204;-75
2022/03/24 06:20:02;;;;;;;13.97;9.83;;;;;;;;;;5054728;28;20173;-75
2022/03/24 06:22:28;;;;;;;14.50;9.57;;;;;;;;;;5054742;28;20183;-75
2022/03/24 06:24:54;;;;;;;15.23;9.53;;;;;;;;;;5054535;28;20636;-75
2022/03/24 06:27:22;;;;;;;13.63;9.83;;;;;;;;;;5054584;28;20720;-76
2022/03/24 06:29:48;;;;;;;13.40;10.40;;;;;;;;;;5072400;28;20212;-75
2022/03/24 06:32:15;;;;;;;18.53;10.00;;;;;;;;;;5071247;28;20201;-76
2022/03/24 06:34:41;;;;;;;14.33;9.57;;;;;;;;;;5054835;28;20183;-76
2022/03/24 06:37:08;;;;;;;14.13;9.70;;;;;;;;;;5054461;28;20200;-75
2022/03/24 06:39:34;;;;;;;13.10;9.70;;;;;;;;;;5054358;28;20655;-75
2022/03/24 06:42:01;;;;;;;20.50;10.63;;;;;;;;;;5054630;28;20180;-76
2022/03/24 06:44:29;;;;;;;19.90;11.17;;;;;;;;;;5072779;28;20173;-76
2022/03/24 06:46:55;;;;;;;18.67;10.57;;;;;;;;;;5054854;28;20177;-76
2022/03/24 06:49:21;;;;;;;14.77;9.60;;;;;;;;;;5056069;28;20200;-76
2022/03/24 06:51:47;;;;;;;18.83;10.50;;;;;;;;;;5058524;28;20192;-76
2022/03/24 06:54:14;;;;;;;14.63;10.10;;;;;;;;;;5058386;28;20548;-75
2022/03/24 06:56:40;;;;;;;16.37;10.57;;;;;;;;;;5058312;28;20196;-75
2022/03/24 06:59:06;;;;;;;15.87;10.40;;;;;;;;;;5058691;28;20609;-75
2022/03/24 07:01:32;;;;;;;14.47;10.20;;;;;;;;;;5058169;28;20640;-76
2022/03/24 07:03:58;;;;;;;16.40;10.23;;;;;;;;;;5058269;28;20631;-75
2022/03/24 07:06:24;;;;;;;16.13;10.27;;;;;;;;;;5058457;28;20258;-75
2022/03/24 07:08:50;;;;;;;16.47;11.37;;;;;;;;;;5058467;28;20255;-75
2022/03/24 07:11:16;;;;;;;16.73;11.23;;;;;;;;;;5057963;28;20184;-76
2022/03/24 07:13:43;;;;;;;16.40;10.70;;;;;;;;;;5058114;28;20182;-76
2022/03/24 07:16:09;;;;;;;18.07;10.90;;;;;;;;;;5057996;28;20174;-75
2022/03/24 07:18:35;;;;;;;15.43;10.77;;;;;;;;;;5058078;28;20260;-75
2022/03/24 07:21:01;;;;;;;17.27;10.83;;;;;;;;;;5058227;28;20181;-74
2022/03/24 07:23:27;;;;;;;14.77;10.17;;;;;;;;;;5075679;28;20175;-74
2022/03/24 07:25:53;;;;;;;15.90;10.40;;;;;;;;;;5057917;28;20174;-74
2022/03/24 07:28:19;;;;;;;12.63;8.73;;;;;;;;;;5057590;28;20224;-76
2022/03/24 07:30:50;;;;;;;14.97;9.60;;;;;;;;;;5057785;28;20180;-76
2022/03/24 07:33:16;;;;;;;17.63;10.27;;;;;;;;;;5074401;28;20164;-76
2022/03/24 07:35:42;;;;;;;15.63;10.33;;;;;;;;;;5057730;28;20179;-75
2022/03/24 07:38:09;;;;;;;15.23;10.07;;;;;;;;;;5057447;28;20219;-75
2022/03/24 07:40:36;;;;;;;15.50;9.70;;;;;;;;;;5057931;28;20708;-76
2022/03/24 07:43:02;;;;;;;16.13;11.10;;;;;;;;;;5075219;28;20252;-77
2022/03/24 07:45:29;;;;;;;16.43;11.27;;;;;;;;;;5057834;28;20177;-76
2022/03/24 07:48:12;;;;;;;17.90;12.20;;;;;;;;;;5074250;28;20231;-76
2022/03/24 07:50:39;;;;;;;16.60;11.80;;;;;;;;;;5057686;28;20259;-76
2022/03/24 07:53:25;;;;;;;16.67;11.53;;;;;;;;;;5057168;28;20209;-75
2022/03/24 07:55:52;;;;;;;17.37;11.63;;;;;;;;;;5044140;28;20185;-75
2022/03/24 07:58:18;;;;;;;15.90;11.63;;;;;;;;;;5057042;28;20205;-75
2022/03/24 08:00:45;;;;;;;15.20;11.07;;;;;;;;;;5056328;28;20189;-75
2022/03/24 08:03:12;;;;;;;17.83;11.37;;;;;;;;;;5057353;28;20181;-75
2022/03/24 08:05:38;;;;;;;15.07;10.60;;;;;;;;;;5057377;28;20173;-75
2022/03/24 08:08:08;;;;;;;16.60;11.87;;;;;;;;;;5056925;28;20197;-75
2022/03/24 08:10:34;;;;;;;18.90;11.13;;;;;;;;;;5056775;28;20727;-75
2022/03/24 08:13:00;;;;;;;15.57;11.93;;;;;;;;;;5056812;28;20552;-75
2022/03/24 08:15:26;;;;;;;16.83;11.20;;;;;;;;;;5056890;28;20651;-75
2022/03/24 08:17:52;;;;;;;17.47;12.03;;;;;;;;;;5056775;28;20213;-75
2022/03/24 08:20:18;;;;;;;19.07;12.80;;;;;;;;;;5056873;28;20177;-75
2022/03/24 08:22:44;;;;;;;19.20;12.50;;;;;;;;;;5056681;28;20180;-75
2022/03/24 08:25:11;;;;;;;16.83;12.10;;;;;;;;;;5056676;28;20177;-75
2022/03/24 08:27:37;;;;;;;18.17;12.03;;;;;;;;;;5056911;28;20231;-75
2022/03/24 08:30:04;;;;;;;20.57;12.40;;;;;;;;;;5057361;28;20187;-75
2022/03/24 08:32:30;;;;;;;16.47;11.93;;;;;;;;;;5073297;28;20542;-75
2022/03/24 08:34:56;;;;;;;18.80;11.80;;;;;;;;;;5056843;28;20626;-75
2022/03/24 08:37:23;;;;;;;18.20;11.73;;;;;;;;;;5056376;28;20216;-75
2022/03/24 08:39:49;;;;;;;21.40;12.47;;;;;;;;;;5056236;28;20195;-75
2022/03/24 08:42:15;;;;;;;16.60;11.90;;;;;;;;;;5056580;28;20186;-75
2022/03/24 08:44:41;;;;;;;19.23;12.20;;;;;;;;;;5056266;28;20264;-75
2022/03/24 08:47:07;;;;;;;17.80;11.90;;;;;;;;;;5056572;28;20191;-75
2022/03/24 08:49:33;;;;;;;18.13;12.03;;;;;;;;;;5056470;28;20254;-75
2022/03/24 08:51:59;;;;;;;16.80;11.97;;;;;;;;;;5072723;28;20178;-75
2022/03/24 08:54:25;;;;;;;18.53;12.47;;;;;;;;;;5056283;28;20185;-75
2022/03/24 08:56:51;;;;;;;20.97;11.80;;;;;;;;;;5056058;28;20208;-75
2022/03/24 08:59:18;;;;;;;18.33;12.33;;;;;;;;;;5056506;28;20291;-75
2022/03/24 09:01:44;;;;;;;15.60;12.00;;;;;;;;;;5056024;28;20177;-75
2022/03/24 09:04:10;;;;;;;21.10;12.10;;;;;;;;;;5056239;28;20177;-75
2022/03/24 09:06:37;;;;;;;17.80;12.00;;;;;;;;;;5056182;28;20176;-75
2022/03/24 09:09:03;;;;;;;16.77;12.53;;;;;;;;;;5055948;28;20201;-75
2022/03/24 09:11:30;;;;;;;17.47;11.80;;;;;;;;;;5056021;28;20223;-75
2022/03/24 09:13:56;;;;;;;17.23;12.13;;;;;;;;;;5056067;28;20261;-75
2022/03/24 09:16:22;;;;;;;15.40;11.67;;;;;;;;;;5055724;28;20267;-75
2022/03/24 09:18:48;;;;;;;19.53;12.57;;;;;;;;;;5055450;28;20622;-75
2022/03/24 09:21:14;;;;;;;17.37;12.07;;;;;;;;;;5055872;28;20570;-75
2022/03/24 09:23:41;;;;;;;16.47;12.17;;;;;;;;;;5055376;28;20223;-75
2022/03/24 09:26:08;;;;;;;15.60;12.20;;;;;;;;;;5055644;28;20726;-75
2022/03/24 09:28:34;;;;;;;17.10;12.30;;;;;;;;;;5055319;28;20683;-75
2022/03/24 09:31:00;;;;;;;16.63;12.10;;;;;;;;;;5055415;28;20547;-75
2022/03/24 09:33:27;;;;;;;17.87;12.20;;;;;;;;;;5055501;28;20614;-75
2022/03/24 09:35:53;;;;;;;15.00;11.37;;;;;;;;;;5055352;28;20184;-75
2022/03/24 09:38:20;;;;;;;16.73;12.17;;;;;;;;;;5055447;28;20211;-75
2022/03/24 09:40:46;;;;;;;16.47;12.33;;;;;;;;;;5055630;28;20227;-75
2022/03/24 09:43:15;;;;;;;16.13;12.03;;;;;;;;;;5055069;28;20173;-76
2022/03/24 09:45:42;;;;;;;19.47;12.33;;;;;;;;;;5055212;28;20181;-75
2022/03/24 09:48:10;;;;;;;15.77;11.70;;;;;;;;;;5055300;28;20250;-75
2022/03/24 09:50:37;;;;;;;15.97;12.37;;;;;;;;;;5055053;28;20225;-75
2022/03/24 09:53:03;;;;;;;17.23;12.50;;;;;;;;;;5055136;28;20181;-75
2022/03/24 09:55:32;;;;;;;16.47;12.63;;;;;;;;;;5055038;28;20203;-75
2022/03/24 09:57:59;;;;;;;15.57;12.03;;;;;;;;;;5054842;28;20242;-75
2022/03/24 10:00:25;;;;;;;15.30;11.87;;;;;;;;;;5055242;28;20212;-75
2022/03/24 10:03:07;;;;;;;18.57;11.97;;;;;;;;;;5054904;28;20173;-75
2022/03/24 10:05:33;;;;;;;16.97;11.90;;;;;;;;;;5054964;28;20250;-75
2022/03/24 10:08:04;;;;;;;15.80;11.87;;;;;;;;;;5055155;28;20201;-75
2022/03/24 10:13:47;;;;;;;15.33;11.80;;;;;;;;;;5072628;28;20156;-75
2022/03/24 10:16:15;;;;;;;15.87;12.43;;;;;;;;;;5055110;28;20252;-75
2022/03/24 10:18:57;;;;;;;16.30;12.43;;;;;;;;;;5054917;28;20285;-76
2022/03/24 10:21:24;;;;;;;17.20;13.50;;;;;;;;;;5054508;28;20179;-76
2022/03/24 10:23:50;;;;;;;17.13;13.43;;;;;;;;;;5054412;28;20169;-75
2022/03/24 10:26:16;;;;;;;15.23;12.47;;;;;;;;;;5055019;28;20553;-76
2022/03/24 10:28:58;;;;;;;18.87;13.23;;;;;;;;;;5054755;28;20694;-76
2022/03/24 10:31:33;;;;;;;19.10;13.50;;;;;;;;;;5054476;28;20208;-76
2022/03/24 10:33:59;;;;;;;15.57;13.20;;;;;;;;;;5054502;28;20179;-75
2022/03/24 10:36:26;;;;;;;18.50;14.50;;;;;;;;;;5054607;28;20651;-75
2022/03/24 10:38:59;;;;;;;19.93;13.93;;;;;;;;;;5071226;28;20216;-75
2022/03/24 10:41:30;;;;;;;18.37;13.73;;;;;;;;;;5054646;28;20165;-75
2022/03/24 10:44:00;;;;;;;17.57;14.20;;;;;;;;;;5071279;28;20215;-76
2022/03/24 10:46:26;;;;;;;16.90;14.20;;;;;;;;;;5072700;28;20158;-76
2022/03/24 10:52:25;;;;;;;16.67;13.63;;;;;;;;;;5072270;28;20210;-76
2022/03/24 10:54:51;;;;;;;17.57;13.67;;;;;;;;;;5054771;28;20177;-76
2022/03/24 10:57:21;;;;;;;17.37;12.67;;;;;;;;;;5054345;28;20212;-76
2022/03/24 10:59:48;;;;;;;16.70;12.93;;;;;;;;;;5054608;28;20239;-76
2022/03/24 11:02:16;;;;;;;16.80;13.30;;;;;;;;;;5054439;28;20258;-76
2022/03/24 11:04:43;;;;;;;16.13;13.03;;;;;;;;;;5072216;28;20169;-76
2022/03/24 11:07:09;;;;;;;16.23;12.97;;;;;;;;;;5054160;28;20177;-76
2022/03/24 11:09:35;;;;;;;16.00;13.03;;;;;;;;;;5054192;28;20258;-76
2022/03/24 11:12:20;;;;;;;16.57;13.37;;;;;;;;;;5072012;28;20179;-76
2022/03/24 11:14:49;;;;;;;17.13;12.87;;;;;;;;;;5072148;28;20543;-76
2022/03/24 11:17:15;;;;;;;15.20;12.67;;;;;;;;;;5054380;28;20694;-75
2022/03/24 11:19:42;;;;;;;15.07;12.00;;;;;;;;;;5054042;28;20228;-76
2022/03/24 11:22:12;;;;;;;14.47;11.63;;;;;;;;;;5054214;28;20685;-75
2022/03/24 11:25:10;;;;;;;15.40;12.20;;;;;;;;;;5053786;28;20207;-75
2022/03/24 11:27:37;;;;;;;14.33;12.47;;;;;;;;;;5054284;28;20202;-75
2022/03/24 11:30:04;;;;;;;15.53;11.73;;;;;;;;;;5054264;28;20257;-75
2022/03/24 11:32:34;;;;;;;15.10;11.73;;;;;;;;;;5054182;28;20173;-75
2022/03/24 11:35:01;;;;;;;15.93;11.27;;;;;;;;;;5054267;28;20219;-75
2022/03/24 11:37:28;;;;;;;13.10;10.97;;;;;;;;;;5056696;28;20213;-75
2022/03/24 11:40:06;;;;;;;16.87;11.47;;;;;;;;;;5057334;28;20652;-75
2022/03/24 11:42:34;;;;;;;14.00;11.03;;;;;;;;;;5075287;28;20176;-75
2022/03/24 11:45:20;;;;;;;12.53;10.33;;;;;;;;;;5057880;28;20184;-76
2022/03/24 11:47:52;;;;;;;11.93;10.57;;;;;;;;;;5057464;28;20250;-75
2022/03/24 11:50:18;;;;;;;14.60;11.47;;;;;;;;;;5074617;28;20181;-75
2022/03/24 11:52:45;;;;;;;13.37;10.73;;;;;;;;;;5075066;28;20164;-75
2022/03/24 11:55:15;;;;;;;15.77;11.73;;;;;;;;;;5057389;28;20177;-75
2022/03/24 11:57:42;;;;;;;12.40;10.70;;;;;;;;;;5073898;28;20740;-75
2022/03/24 12:00:13;;;;;;;12.90;10.63;;;;;;;;;;5075095;28;20172;-75
2022/03/24 12:02:40;;;;;;;14.07;11.10;;;;;;;;;;5057006;28;20680;-75
2022/03/24 12:05:06;;;;;;;13.30;9.90;;;;;;;;;;5057461;28;20181;-75
2022/03/24 12:07:33;;;;;;;10.38;8.90;;;;;;;;;;5057058;28;20286;-75
2022/03/24 12:10:06;;;;;;;10.57;8.67;;;;;;;;;;5057141;28;20185;-75
2022/03/24 12:12:32;;;;;;;10.77;9.03;;;;;;;;;;5057115;28;20161;-75
2022/03/24 12:14:59;;;;;;;13.20;9.30;;;;;;;;;;5074908;28;20211;-77
2022/03/24 12:17:30;;;;;;;13.37;9.97;;;;;;;;;;5056780;28;20201;-75
2022/03/24 12:19:57;;;;;;;14.10;11.00;;;;;;;;;;5057180;28;20258;-75
2022/03/24 12:22:28;;;;;;;11.50;10.03;;;;;;;;;;5073340;28;20177;-75
2022/03/24 12:27:55;;;;;;;13.07;10.18;;;;;;;;;;5074798;28;20172;-75
2022/03/24 12:30:21;;;;;;;12.43;11.07;;;;;;;;;;5074551;28;20177;-76
2022/03/24 12:33:06;;;;;;;16.50;11.27;;;;;;;;;;5056475;28;20215;-75
2022/03/24 12:35:39;;;;;;;13.60;11.43;;;;;;;;;;5056918;28;20177;-75
2022/03/24 12:38:30;;;;;;;14.10;11.38;;;;;;;;;;5073176;28;20212;-76
2022/03/24 12:41:11;;;;;;;13.75;10.85;;;;;;;;;;5048944;28;20208;-76
2022/03/24 12:43:41;;;;;;;12.77;11.00;;;;;;;;;;5056633;28;20185;-76
2022/03/24 12:46:39;;;;;;;14.15;10.75;;;;;;;;;;5056328;28;20256;-76
2022/03/24 12:49:12;;;;;;;14.55;11.85;;;;;;;;;;5023829;28;20197;-76
2022/03/24 12:51:52;;;;;;;15.45;11.07;;;;;;;;;;5056088;28;20180;-75
2022/03/24 12:54:19;;;;;;;13.10;9.63;;;;;;;;;;5076439;28;20165;-75
2022/03/24 12:56:46;;;;;;;13.35;10.82;;;;;;;;;;5076254;28;20176;-75
2022/03/24 12:59:12;;;;;;;12.55;10.70;;;;;;;;;;5059558;28;20687;-77
2022/03/24 13:01:39;;;;;;;15.65;10.75;;;;;;;;;;5059189;28;20168;-76
2022/03/24 13:04:07;;;;;;;14.90;12.05;;;;;;;;;;5060000;28;20226;-75
2022/03/24 13:06:37;;;;;;;13.73;12.00;;;;;;;;;;5059595;28;20177;-76
2022/03/24 13:09:22;;;;;;;16.10;12.60;;;;;;;;;;5094240;28;20203;-76
2022/03/24 13:15:07;;;;;;;13.30;10.68;;;;;;;;;;5094231;28;20164;-76
2022/03/24 13:17:33;;;;;;;13.13;11.13;;;;;;;;;;5058834;28;20196;-76
2022/03/24 13:20:04;;;;;;;14.07;11.27;;;;;;;;;;5093916;28;20669;-76
2022/03/24 13:22:30;;;;;;;14.32;12.30;;;;;;;;;;5093522;28;20174;-76
2022/03/24 13:25:02;;;;;;;17.80;12.95;;;;;;;;;;5075510;28;20263;-76
2022/03/24 13:27:32;;;;;;;14.98;12.02;;;;;;;;;;5093683;28;20593;-76
2022/03/24 13:29:58;;;;;;;14.85;12.25;;;;;;;;;;5075629;28;20208;-76
2022/03/24 13:32:26;;;;;;;15.10;12.38;;;;;;;;;;5075477;28;20176;-76
2022/03/24 13:34:53;;;;;;;17.40;13.75;;;;;;;;;;5075722;28;20183;-76
2022/03/24 13:37:24;;;;;;;14.65;12.90;;;;;;;;;;5075232;28;20197;-77
2022/03/24 13:39:54;;;;;;;14.98;12.35;;;;;;;;;;5075239;28;20184;-77
2022/03/24 13:42:21;;;;;;;17.05;11.75;;;;;;;;;;5093215;28;20165;-76
2022/03/24 13:44:48;;;;;;;16.50;12.52;;;;;;;;;;5075139;28;20233;-77
2022/03/24 13:47:15;;;;;;;15.88;13.05;;;;;;;;;;5093310;28;20168;-77
2022/03/24 13:49:41;;;;;;;14.18;12.15;;;;;;;;;;5058929;28;20196;-76
2022/03/24 13:52:08;;;;;;;16.23;12.68;;;;;;;;;;5075104;28;20176;-78
2022/03/24 13:54:34;;;;;;;17.17;13.38;;;;;;;;;;5075060;28;20171;-77
2022/03/24 13:57:01;;;;;;;15.95;13.63;;;;;;;;;;5093180;28;20175;-76
2022/03/24 13:59:32;;;;;;;15.82;13.45;;;;;;;;;;5074281;28;20553;-76
2022/03/24 14:01:58;;;;;;;16.13;12.32;;;;;;;;;;5075082;28;20172;-76
2022/03/24 14:04:25;;;;;;;16.63;13.35;;;;;;;;;;5093072;28;20176;-76
2022/03/24 14:07:07;;;;;;;13.93;12.48;;;;;;;;;;5075292;28;20173;-76
2022/03/24 14:09:33;;;;;;;14.77;12.63;;;;;;;;;;5074818;28;20195;-77
2022/03/24 14:15:05;;;;;;;12.90;11.60;;;;;;;;;;5093269;28;20155;-76
2022/03/24 14:17:32;;;;;;;17.63;13.43;;;;;;;;;;5058445;28;20727;-76
2022/03/24 14:19:59;;;;;;;15.07;12.32;;;;;;;;;;5058794;28;20701;-76
2022/03/24 14:22:25;;;;;;;14.52;12.55;;;;;;;;;;5058244;28;20168;-76
2022/03/24 14:24:52;;;;;;;15.02;12.65;;;;;;;;;;5074999;28;20258;-76
2022/03/24 14:27:23;;;;;;;15.27;12.73;;;;;;;;;;5074554;28;20203;-76
2022/03/24 14:30:04;;;;;;;14.05;12.00;;;;;;;;;;5075165;28;20211;-76
2022/03/24 14:32:34;;;;;;;15.15;12.05;;;;;;;;;;5074636;28;20196;-76
2022/03/24 14:35:16;;;;;;;15.77;12.50;;;;;;;;;;5093174;28;20172;-76
2022/03/24 14:37:47;;;;;;;15.60;12.73;;;;;;;;;;5075080;28;20206;-76
2022/03/24 14:40:14;;;;;;;14.13;12.45;;;;;;;;;;5074815;28;20172;-76
2022/03/24 14:42:40;;;;;;;14.90;12.38;;;;;;;;;;5058119;28;20182;-76
2022/03/24 14:45:08;;;;;;;14.88;12.70;;;;;;;;;;5074737;28;20173;-76
2022/03/24 14:47:35;;;;;;;15.48;12.55;;;;;;;;;;5074604;28;20180;-75
2022/03/24 14:50:01;;;;;;;16.38;12.68;;;;;;;;;;5074647;28;20183;-76